ADDS METAR Data INFO
IDs: Format: Raw Decoded Include TAF

Data at: 1320 UTC 11 Dec 2017

K08D 110855Z AUTO 32026G35KT 10SM OVC014 03/01 A2997 RMK AO2
K08D 110835Z AUTO 32023G31KT 10SM OVC015 03/01 A2996 RMK AO2
K08D 110815Z AUTO 32022G33KT 10SM OVC016 03/01 A2995 RMK AO2
K08D 110755Z AUTO 32022G34KT 10SM 03/01 A2994 RMK AO2
K08D 110735Z AUTO 32026G35KT A2993 RMK AO2 PWINO
K08D 110635Z AUTO 32027G39KT 10SM OVC016 03/02 A2991 RMK AO2
K08D 110615Z AUTO 32025G39KT 10SM OVC017 03/02 A2990 RMK AO2
K08D 110555Z AUTO 31022G33KT 10SM OVC016 03/02 A2990 RMK AO2
K08D 110535Z AUTO 31024G37KT 9SM SCT018 SCT027 BKN032 03/02 A2990 RMK AO2
K08D 100455Z AUTO 29014KT 9SM CLR 00/M03 A2999 RMK AO2
K08D 100435Z AUTO 29014G19KT 7SM CLR 00/M03 A2999 RMK AO2
K08D 100415Z AUTO 29016KT 7SM CLR 01/M03 A2999 RMK AO2
K08D 100355Z AUTO 30017KT 8SM CLR 02/M04 A2999 RMK AO2
K08D 100335Z AUTO 30014G21KT 8SM CLR 02/M03 A2999 RMK AO2
K08D 100315Z AUTO 30015KT 10SM CLR 02/M03 A3000 RMK AO2
K08D 100255Z AUTO 30015KT 10SM CLR 02/M03 A2999 RMK AO2
K08D 100235Z AUTO 30014G21KT 10SM CLR 01/M03 A3000 RMK AO2
K08D 100215Z AUTO 30015G20KT 10SM CLR 01/M03 A2999 RMK AO2
K08D 100155Z AUTO 30015G20KT 10SM CLR 01/M03 A2998 RMK AO2
K08D 100135Z AUTO 29015G21KT 10SM CLR 02/M03 A2998 RMK AO2